Time;durP1;ratioP1;P1;durP2;ratioP2;P2;SDS_P1;SDS_P2;PMS_P1;PMS_P2;Temp;Humidity;BMP_temperature;BMP_pressure;BME280_temperature;BME280_humidity;BME280_pressure;Samples;Min_cycle;Max_cycle;Signal;HPM_P1;HPM_P2
2021/11/05 00:01:23;;;;;;;0.65;0.40;;;;;;;7.90;91.01;98690.72;4229760;83;28551;-82
2021/11/05 00:07:24;;;;;;;0.72;0.50;;;;;;;7.86;92.06;98695.70;4230005;83;28500;-82
2021/11/05 00:13:27;;;;;;;1.17;0.30;;;;;;;7.77;93.84;98711.74;4229469;83;28523;-82
2021/11/05 00:19:28;;;;;;;0.75;0.40;;;;;;;7.71;95.44;98724.15;4280950;81;28498;-83
2021/11/05 00:25:30;;;;;;;0.42;0.35;;;;;;;7.54;98.63;98736.73;4290624;81;28474;-82
2021/11/05 00:31:31;;;;;;;0.90;0.50;;;;;;;7.41;100.00;98752.89;4239148;83;28458;-81
2021/11/05 00:37:33;;;;;;;0.55;0.40;;;;;;;7.26;100.00;98759.89;4272249;82;28502;-82
2021/11/05 00:43:35;;;;;;;0.78;0.50;;;;;;;7.24;100.00;98771.33;4183795;84;28517;-80
2021/11/05 00:49:36;;;;;;;0.82;0.60;;;;;;;7.16;100.00;98786.28;4300908;82;28557;-82
2021/11/05 00:55:38;;;;;;;1.92;1.20;;;;;;;7.09;100.00;98794.34;4293587;82;28473;-81
2021/11/05 01:01:40;;;;;;;2.52;0.93;;;;;;;6.98;100.00;98798.00;4311120;82;28481;-81
2021/11/05 01:07:41;;;;;;;2.22;1.20;;;;;;;6.90;100.00;98808.92;4220176;83;28505;-80
2021/11/05 01:13:43;;;;;;;2.47;1.25;;;;;;;6.83;100.00;98814.84;4312893;82;28500;-79
2021/11/05 01:19:44;;;;;;;2.37;1.15;;;;;;;6.70;100.00;98819.18;4186416;84;28515;-80
2021/11/05 01:25:46;;;;;;;1.47;0.80;;;;;;;6.63;100.00;98825.58;4232307;82;28458;-80
2021/11/05 01:31:47;;;;;;;1.52;0.80;;;;;;;6.61;100.00;98819.64;4252209;83;28483;-80
2021/11/05 01:37:49;;;;;;;2.35;1.35;;;;;;;6.58;100.00;98818.73;4270026;82;28465;-80
2021/11/05 01:43:50;;;;;;;3.17;1.30;;;;;;;6.56;100.00;98820.27;4266185;82;28493;-82
2021/11/05 01:49:52;;;;;;;2.98;1.45;;;;;;;6.49;100.00;98820.79;4307978;82;28481;-80
2021/11/05 01:55:53;;;;;;;2.30;1.32;;;;;;;6.37;100.00;98826.78;4284477;82;28506;-81
2021/11/05 02:01:58;;;;;;;2.15;1.25;;;;;;;6.22;100.00;98832.34;4307445;82;28482;-82
2021/11/05 02:08:02;;;;;;;2.90;1.25;;;;;;;6.12;100.00;98825.28;4314611;82;28508;-82
2021/11/05 02:14:05;;;;;;;0.95;0.70;;;;;;;6.04;100.00;98828.98;4281109;82;28467;-82
2021/11/05 02:20:10;;;;;;;1.22;0.60;;;;;;;6.03;100.00;98832.69;4305128;82;28537;-81
2021/11/05 02:26:11;;;;;;;1.02;0.80;;;;;;;6.04;100.00;98827.66;4310365;82;28442;-80
2021/11/05 02:32:13;;;;;;;1.95;0.80;;;;;;;6.13;100.00;98824.25;4270601;82;28486;-83
2021/11/05 02:38:15;;;;;;;1.20;0.80;;;;;;;6.06;100.00;98825.59;4308106;81;28494;-87
2021/11/05 02:44:17;;;;;;;1.17;0.72;;;;;;;5.99;100.00;98830.91;4301979;82;28553;-85
2021/11/05 02:50:19;;;;;;;1.12;0.68;;;;;;;5.96;100.00;98827.33;4311559;82;28533;-86
2021/11/05 02:56:22;;;;;;;1.77;0.88;;;;;;;5.92;100.00;98826.61;4308149;81;28544;-85
2021/11/05 03:02:23;;;;;;;1.62;0.80;;;;;;;5.86;100.00;98835.73;4272526;82;28483;-86
2021/11/05 03:08:25;;;;;;;1.27;0.80;;;;;;;5.84;100.00;98848.98;4309134;82;28459;-85
2021/11/05 03:14:28;;;;;;;0.75;0.60;;;;;;;5.85;100.00;98856.77;4301858;82;28496;-86
2021/11/05 03:20:30;;;;;;;0.98;0.60;;;;;;;5.90;100.00;98870.03;4288186;82;28451;-83
2021/11/05 03:26:31;;;;;;;0.70;0.50;;;;;;;5.88;100.00;98890.73;4284559;82;28484;-84
2021/11/05 03:32:34;;;;;;;1.20;0.60;;;;;;;5.87;100.00;98907.27;4296976;82;28517;-84
2021/11/05 03:38:36;;;;;;;0.78;0.60;;;;;;;5.82;100.00;98915.05;4270884;82;28501;-85
2021/11/05 03:44:37;;;;;;;0.57;0.50;;;;;;;5.72;100.00;98928.80;4238332;83;28490;-86
2021/11/05 03:50:38;;;;;;;1.47;0.75;;;;;;;5.68;100.00;98931.04;4144841;85;28490;-85
2021/11/05 03:56:40;;;;;;;0.80;0.60;;;;;;;5.67;100.00;98943.23;4254729;83;28479;-86
2021/11/05 04:02:41;;;;;;;1.02;0.60;;;;;;;5.65;100.00;98966.13;4228364;83;28489;-86
2021/11/05 04:08:43;;;;;;;1.10;0.78;;;;;;;5.65;100.00;98978.13;4170874;85;28531;-87
2021/11/05 04:14:44;;;;;;;0.80;0.70;;;;;;;5.67;100.00;98990.75;4263278;83;28469;-85
2021/11/05 04:20:46;;;;;;;2.10;0.80;;;;;;;5.57;100.00;98985.80;4175528;84;28468;-85
2021/11/05 04:26:47;;;;;;;1.98;0.50;;;;;;;5.51;100.00;98991.92;4248329;83;28494;-86
2021/11/05 04:32:48;;;;;;;1.45;0.65;;;;;;;5.53;100.00;98990.41;4242707;83;28484;-85
2021/11/05 04:38:50;;;;;;;1.82;0.75;;;;;;;5.48;100.00;98980.83;4244853;82;28470;-85
2021/11/05 04:44:51;;;;;;;0.93;0.68;;;;;;;5.54;100.00;98979.52;4230959;82;28515;-85
2021/11/05 04:50:53;;;;;;;1.65;0.80;;;;;;;5.53;100.00;98983.21;4263680;83;28463;-86
2021/11/05 04:56:54;;;;;;;2.10;0.90;;;;;;;5.53;100.00;98989.88;4254810;83;28468;-84
2021/11/05 05:02:56;;;;;;;1.27;0.70;;;;;;;5.51;100.00;98980.42;4164902;85;28489;-85
2021/11/05 05:08:57;;;;;;;1.62;0.88;;;;;;;5.43;100.00;98970.76;4249635;83;28483;-84
2021/11/05 05:14:59;;;;;;;1.00;0.75;;;;;;;5.40;100.00;98981.30;4264172;83;28479;-84
2021/11/05 05:21:00;;;;;;;0.88;0.65;;;;;;;5.30;100.00;98995.02;4256267;83;28513;-82
2021/11/05 05:27:02;;;;;;;1.40;0.80;;;;;;;5.27;100.00;98999.91;4261619;83;29177;-83
2021/11/05 05:33:03;;;;;;;1.17;0.70;;;;;;;5.25;100.00;99014.77;4232634;83;28539;-82
2021/11/05 05:39:05;;;;;;;1.32;0.80;;;;;;;5.31;100.00;99018.51;4268248;83;28515;-82
2021/11/05 05:45:08;;;;;;;1.55;1.07;;;;;;;5.35;100.00;99013.58;4258892;83;28562;-82
2021/11/05 05:51:09;;;;;;;3.12;1.15;;;;;;;5.35;100.00;99024.25;4201388;84;28472;-82
2021/11/05 05:57:11;;;;;;;1.50;0.98;;;;;;;5.27;100.00;99030.08;4260722;83;28471;-83
2021/11/05 06:03:13;;;;;;;2.02;1.25;;;;;;;5.20;100.00;99045.20;4258608;83;28540;-85
2021/11/05 06:09:14;;;;;;;1.70;1.10;;;;;;;5.19;100.00;99061.38;4123661;86;28470;-85
2021/11/05 06:15:16;;;;;;;3.33;1.50;;;;;;;5.15;100.00;99056.44;4187821;84;28560;-83
2021/11/05 06:21:17;;;;;;;1.32;1.00;;;;;;;5.13;100.00;99071.81;4236014;84;28475;-86
2021/11/05 06:27:19;;;;;;;3.52;1.27;;;;;;;5.09;100.00;99071.06;4269216;83;28451;-84
2021/11/05 06:33:20;;;;;;;1.80;1.10;;;;;;;5.26;100.00;99074.25;4248848;83;28460;-86
2021/11/05 06:39:25;;;;;;;2.35;1.45;;;;;;;5.41;100.00;99070.13;4181677;84;28491;-87
2021/11/05 06:45:28;;;;;;;2.45;1.55;;;;;;;5.50;100.00;99090.29;4299841;82;28889;-88
2021/11/05 06:51:29;;;;;;;2.65;1.80;;;;;;;5.68;100.00;99093.77;4316099;81;28555;-84
2021/11/05 06:57:31;;;;;;;6.47;2.05;;;;;;;5.80;100.00;99108.70;4293610;81;28467;-83
2021/11/05 07:03:34;;;;;;;7.37;2.20;;;;;;;5.90;100.00;99128.88;4303406;82;28517;-82
2021/11/05 07:09:36;;;;;;;5.20;2.45;;;;;;;5.95;100.00;99122.41;4238316;82;28471;-84
2021/11/05 07:15:38;;;;;;;5.53;1.98;;;;;;;6.13;100.00;99126.73;4232791;83;28524;-86
2021/11/05 07:21:41;;;;;;;4.20;1.87;;;;;;;6.46;100.00;99118.52;4312936;81;28439;-82
2021/11/05 07:27:43;;;;;;;3.15;1.57;;;;;;;6.90;100.00;99126.98;4288543;81;28500;-84
2021/11/05 07:33:44;;;;;;;2.55;1.40;;;;;;;7.43;100.00;99142.70;4272042;81;28465;-82
2021/11/05 07:39:47;;;;;;;6.22;2.20;;;;;;;7.70;100.00;99130.62;4297108;81;28552;-77
2021/11/05 07:45:48;;;;;;;3.65;1.80;;;;;;;8.02;100.00;99135.23;4302273;81;28490;-81
2021/11/05 07:51:49;;;;;;;4.17;1.80;;;;;;;8.00;96.14;99166.77;4298723;81;28477;-83
2021/11/05 07:57:53;;;;;;;2.83;1.90;;;;;;;8.30;94.34;99160.38;4252164;82;28508;-85
2021/11/05 08:03:54;;;;;;;2.50;1.45;;;;;;;8.53;87.42;99168.44;4303252;81;28513;-78
2021/11/05 08:09:55;;;;;;;2.87;1.30;;;;;;;8.72;88.49;99175.24;4180274;83;28539;-81
2021/11/05 08:15:57;;;;;;;1.60;1.30;;;;;;;8.86;87.27;99190.20;4239507;82;28484;-81
2021/11/05 08:21:58;;;;;;;2.55;1.32;;;;;;;9.06;83.55;99197.29;4305018;81;28546;-82
2021/11/05 08:27:59;;;;;;;3.30;1.47;;;;;;;9.19;80.67;99189.67;4280621;81;28511;-80
2021/11/05 08:34:02;;;;;;;2.62;1.45;;;;;;;9.30;78.87;99194.33;4309919;81;28546;-84
2021/11/05 08:40:07;;;;;;;2.20;1.32;;;;;;;9.34;78.10;99216.98;4304465;81;28477;-83
2021/11/05 08:46:08;;;;;;;3.27;1.52;;;;;;;9.56;75.61;99207.20;4313811;81;28537;-79
2021/11/05 08:52:10;;;;;;;2.00;1.22;;;;;;;9.71;74.80;99220.28;4305954;81;28535;-78
2021/11/05 08:58:14;;;;;;;3.02;1.57;;;;;;;9.60;74.58;99238.46;4312716;81;28445;-81
2021/11/05 09:04:17;;;;;;;2.17;1.40;;;;;;;9.39;76.39;99243.16;4256396;82;28539;-79
2021/11/05 09:10:20;;;;;;;3.05;1.40;;;;;;;9.42;78.00;99249.43;4319331;81;28499;-79
2021/11/05 09:16:22;;;;;;;2.20;1.12;;;;;;;9.49;74.46;99262.29;4295222;81;28537;-79
2021/11/05 09:22:24;;;;;;;3.08;1.40;;;;;;;9.62;75.32;99268.59;4302056;81;28500;-79
2021/11/05 09:28:26;;;;;;;2.60;1.60;;;;;;;9.71;74.71;99272.64;4308302;81;28584;-81
2021/11/05 09:34:31;;;;;;;2.98;1.50;;;;;;;9.88;73.63;99269.41;4303168;81;28639;-76
2021/11/05 09:40:33;;;;;;;2.23;1.20;;;;;;;10.08;73.65;99275.12;4288010;81;28509;-80
2021/11/05 09:46:37;;;;;;;5.05;1.70;;;;;;;10.15;73.13;99268.63;4228156;83;28467;-83
2021/11/05 09:52:39;;;;;;;1.87;1.40;;;;;;;10.06;73.21;99273.18;4146088;85;28543;-81
2021/11/05 09:58:42;;;;;;;2.40;1.57;;;;;;;9.97;71.42;99282.03;4152095;84;28539;-84
2021/11/05 10:04:45;;;;;;;2.47;1.47;;;;;;;10.15;70.21;99285.25;4156787;84;28470;-86
2021/11/05 10:10:46;;;;;;;3.40;1.82;;;;;;;10.15;71.58;99298.69;4255580;83;28531;-81
2021/11/05 10:17:04;;;;;;;1.98;1.47;;;;;;;10.16;71.65;99310.56;4172115;84;28538;-81
2021/11/05 10:23:06;;;;;;;3.60;1.80;;;;;;;9.80;72.67;99331.45;4267378;82;28454;-79
2021/11/05 10:29:11;;;;;;;3.52;1.90;;;;;;;9.63;72.63;99327.94;4147355;84;28522;-78
2021/11/05 10:35:21;;;;;;;4.80;2.20;;;;;;;9.62;74.30;99315.56;4233088;82;28567;-78
2021/11/05 10:41:25;;;;;;;4.92;2.42;;;;;;;9.67;74.33;99309.55;4298020;81;28538;-78
2021/11/05 10:47:27;;;;;;;3.75;2.35;;;;;;;9.64;74.23;99322.91;4306027;81;28560;-81
2021/11/05 10:53:35;;;;;;;3.87;2.12;;;;;;;9.85;75.18;99337.80;4287592;81;28521;-82
2021/11/05 10:59:36;;;;;;;4.90;2.10;;;;;;;10.08;73.75;99335.56;4295400;81;28459;-79
2021/11/05 11:05:40;;;;;;;3.30;2.02;;;;;;;9.99;71.72;99331.80;4313413;81;28441;-79
2021/11/05 11:11:48;;;;;;;4.47;2.52;;;;;;;10.30;71.52;99328.73;4312209;81;28531;-78
2021/11/05 11:17:55;;;;;;;5.28;2.70;;;;;;;10.25;70.45;99333.13;4310482;81;28500;-81
2021/11/05 11:23:58;;;;;;;5.42;2.50;;;;;;;10.44;70.89;99325.92;4318027;81;28539;-79
2021/11/05 11:29:59;;;;;;;3.35;2.47;;;;;;;10.61;71.24;99324.81;4305274;81;28501;-79
2021/11/05 11:36:04;;;;;;;5.70;2.40;;;;;;;10.59;71.31;99327.73;4315132;81;28478;-80
2021/11/05 11:42:08;;;;;;;4.97;2.80;;;;;;;10.49;71.20;99337.36;4271811;82;28467;-81
2021/11/05 11:48:10;;;;;;;5.17;2.30;;;;;;;10.36;68.69;99336.42;4258870;83;28553;-81
2021/11/05 11:54:18;;;;;;;3.70;2.05;;;;;;;10.39;69.94;99341.34;4266970;82;28457;-80
2021/11/05 12:00:25;;;;;;;5.42;2.12;;;;;;;10.32;70.17;99361.58;4263235;82;28519;-81
2021/11/05 12:06:26;;;;;;;3.52;2.50;;;;;;;10.32;70.71;99364.27;4147929;84;28491;-80
2021/11/05 12:12:31;;;;;;;4.47;2.50;;;;;;;10.25;70.34;99357.31;4250066;82;28452;-78
2021/11/05 12:18:32;;;;;;;3.50;2.25;;;;;;;10.29;69.30;99349.09;4154122;84;28916;-78
2021/11/05 12:24:33;;;;;;;3.33;2.27;;;;;;;10.31;68.65;99348.38;4256284;82;28636;-76
2021/11/05 12:30:34;;;;;;;3.72;2.27;;;;;;;10.30;66.69;99335.45;4253373;82;28526;-76
2021/11/05 12:36:56;;;;;;;4.20;2.42;;;;;;;10.29;67.38;99343.22;4150454;84;28612;-78
2021/11/05 12:43:01;;;;;;;3.85;2.27;;;;;;;10.28;68.40;99331.33;4257971;82;28572;-81
2021/11/05 12:49:05;;;;;;;3.60;2.45;;;;;;;10.32;69.79;99348.14;4183346;83;28513;-80
2021/11/05 12:55:07;;;;;;;3.92;2.33;;;;;;;10.33;68.64;99345.75;4253399;82;28457;-83
2021/11/05 13:01:15;;;;;;;4.37;2.37;;;;;;;10.30;69.68;99357.45;4251445;82;28500;-83
2021/11/05 13:07:17;;;;;;;5.37;2.62;;;;;;;10.22;70.17;99347.82;4239347;82;28540;-84
2021/11/05 13:13:18;;;;;;;3.60;2.15;;;;;;;10.12;69.99;99344.81;4179425;83;28454;-74
2021/11/05 13:19:21;;;;;;;4.53;2.20;;;;;;;10.16;69.82;99344.16;4273772;82;28505;-77
2021/11/05 13:25:45;;;;;;;3.65;2.22;;;;;;;10.04;69.82;99357.47;4223697;82;28521;-74
2021/11/05 13:31:49;;;;;;;3.67;2.27;;;;;;;10.14;70.44;99365.05;4244544;82;28529;-74
2021/11/05 13:37:49;;;;;;;3.87;2.40;;;;;;;10.29;70.19;99378.66;4262413;82;28486;-75
2021/11/05 13:43:56;;;;;;;4.15;2.67;;;;;;;10.29;70.43;99378.16;4313394;81;28524;-74
2021/11/05 13:50:00;;;;;;;3.98;2.22;;;;;;;10.30;71.78;99398.60;4310706;81;28482;-75
2021/11/05 13:56:15;;;;;;;5.62;2.85;;;;;;;10.26;72.40;99419.42;4307690;81;28509;-73
2021/11/05 14:02:19;;;;;;;4.12;2.60;;;;;;;10.02;74.06;99428.59;4282060;81;28862;-73
2021/11/05 14:08:22;;;;;;;5.30;2.67;;;;;;;9.79;74.23;99431.84;4289619;81;28441;-75
2021/11/05 14:14:28;;;;;;;4.55;2.33;;;;;;;9.67;74.69;99431.19;4315310;81;28532;-74
2021/11/05 14:20:32;;;;;;;3.90;2.33;;;;;;;9.49;75.49;99442.12;4299832;81;28552;-77
2021/11/05 14:26:34;;;;;;;3.77;2.45;;;;;;;9.34;78.18;99453.66;4310015;82;28548;-75
2021/11/05 14:32:40;;;;;;;4.28;2.55;;;;;;;9.19;80.04;99462.77;4303732;82;28553;-75
2021/11/05 14:38:56;;;;;;;5.45;2.30;;;;;;;9.14;81.55;99473.83;4283005;81;28512;-76
2021/11/05 14:45:02;;;;;;;3.87;2.35;;;;;;;9.05;81.30;99474.59;4289083;81;28555;-79
2021/11/05 14:51:18;;;;;;;4.33;2.40;;;;;;;8.86;83.48;99493.19;4310705;82;28530;-76
2021/11/05 14:57:21;;;;;;;5.15;2.22;;;;;;;8.72;85.91;99495.05;4305206;82;28501;-75
2021/11/05 15:03:27;;;;;;;5.08;2.72;;;;;;;8.61;87.07;99503.22;4315309;81;28475;-76
2021/11/05 15:09:29;;;;;;;4.15;2.50;;;;;;;8.57;88.30;99505.98;4317254;81;28549;-75
2021/11/05 15:15:35;;;;;;;3.77;2.22;;;;;;;8.50;89.86;99516.70;4313952;82;28478;-77
2021/11/05 15:21:36;;;;;;;3.70;2.45;;;;;;;8.34;91.54;99523.27;4303540;82;28484;-76
2021/11/05 15:27:38;;;;;;;5.28;3.02;;;;;;;8.25;93.36;99528.50;4340446;81;28467;-74
2021/11/05 15:33:39;;;;;;;6.75;3.45;;;;;;;8.17;94.46;99534.05;4270083;81;28481;-78
2021/11/05 15:39:40;;;;;;;6.20;3.70;;;;;;;8.03;96.07;99528.67;4312973;81;28502;-75
2021/11/05 15:45:44;;;;;;;5.03;3.17;;;;;;;7.97;96.54;99536.19;4262125;83;28476;-78
2021/11/05 15:51:45;;;;;;;5.65;3.30;;;;;;;7.85;100.00;99545.80;4243684;83;28476;-72
2021/11/05 15:57:47;;;;;;;5.95;3.50;;;;;;;7.72;100.00;99552.77;4220900;84;28482;-74
2021/11/05 16:03:51;;;;;;;6.75;3.62;;;;;;;7.59;100.00;99549.51;4277141;83;28471;-75
2021/11/05 16:09:52;;;;;;;7.90;4.03;;;;;;;7.56;100.00;99564.64;4265038;83;28457;-77
2021/11/05 16:15:53;;;;;;;8.65;3.85;;;;;;;7.48;100.00;99572.82;4263069;83;28491;-75
2021/11/05 16:21:54;;;;;;;8.28;3.77;;;;;;;7.43;100.00;99576.61;4258662;83;28542;-75
2021/11/05 16:28:01;;;;;;;5.67;3.15;;;;;;;7.46;100.00;99587.75;4271002;83;28440;-75
2021/11/05 16:34:04;;;;;;;8.48;4.55;;;;;;;7.47;100.00;99591.23;4219701;84;28578;-75
2021/11/05 16:40:07;;;;;;;10.03;4.97;;;;;;;7.48;100.00;99597.73;4211605;82;28492;-74
2021/11/05 16:46:09;;;;;;;9.10;4.90;;;;;;;7.43;100.00;99599.36;4221604;83;28510;-83
2021/11/05 16:52:10;;;;;;;8.98;4.42;;;;;;;7.34;100.00;99606.19;4212533;83;28430;-80
2021/11/05 16:58:13;;;;;;;7.95;4.67;;;;;;;7.24;100.00;99614.58;4141827;85;28509;-76
2021/11/05 17:04:15;;;;;;;12.60;4.95;;;;;;;7.11;100.00;99621.98;4266814;83;28474;-77
2021/11/05 17:10:18;;;;;;;10.20;5.35;;;;;;;6.96;100.00;99622.56;4153301;85;28498;-76
2021/11/05 17:16:20;;;;;;;10.50;5.42;;;;;;;6.79;100.00;99632.70;4215395;83;28903;-78
2021/11/05 17:22:23;;;;;;;12.23;5.33;;;;;;;6.69;100.00;99638.38;4266013;82;28450;-75
2021/11/05 17:28:25;;;;;;;11.48;5.28;;;;;;;6.47;100.00;99642.37;4228081;83;28485;-78
2021/11/05 17:34:26;;;;;;;9.78;5.20;;;;;;;6.35;100.00;99660.73;4219633;84;28480;-76
2021/11/05 17:40:29;;;;;;;13.90;6.45;;;;;;;6.25;100.00;99674.88;4230575;82;28485;-77
2021/11/05 17:46:31;;;;;;;13.38;7.12;;;;;;;6.36;100.00;99687.75;4262809;83;28460;-76
2021/11/05 17:52:33;;;;;;;12.30;6.87;;;;;;;6.51;100.00;99693.06;4242057;82;28571;-75
2021/11/05 17:58:35;;;;;;;13.22;7.28;;;;;;;6.61;100.00;99697.28;4239828;83;28481;-76
2021/11/05 18:04:36;;;;;;;14.10;6.72;;;;;;;6.73;100.00;99698.43;4212480;82;28441;-78
2021/11/05 18:10:39;;;;;;;15.65;7.42;;;;;;;6.69;100.00;99705.19;4246806;83;28519;-76
2021/11/05 18:16:42;;;;;;;14.35;6.78;;;;;;;6.68;100.00;99715.55;4290895;82;28480;-77
2021/11/05 18:22:43;;;;;;;14.05;7.03;;;;;;;6.70;100.00;99736.23;4281650;81;28617;-78
2021/11/05 18:28:49;;;;;;;12.13;6.40;;;;;;;6.71;100.00;99737.88;4275556;82;28543;-77
2021/11/05 18:34:54;;;;;;;16.62;7.00;;;;;;;6.82;100.00;99738.73;4275076;82;28478;-75
2021/11/05 18:40:55;;;;;;;16.67;7.70;;;;;;;7.00;100.00;99745.99;4251571;82;28485;-78
2021/11/05 18:46:57;;;;;;;14.68;7.28;;;;;;;7.19;100.00;99748.03;4284106;81;28492;-75
2021/11/05 18:53:00;;;;;;;16.17;7.83;;;;;;;7.00;100.00;99754.02;4299271;82;28514;-76
2021/11/05 18:59:02;;;;;;;15.58;7.65;;;;;;;7.11;100.00;99761.03;4306948;82;28459;-76
2021/11/05 19:05:05;;;;;;;18.05;9.43;;;;;;;7.14;100.00;99780.38;4280249;82;28509;-77
2021/11/05 19:11:08;;;;;;;21.82;10.40;;;;;;;7.03;100.00;99786.55;4282784;81;28524;-76
2021/11/05 19:17:09;;;;;;;20.57;10.45;;;;;;;7.20;100.00;99789.00;4265812;82;28481;-80
2021/11/05 19:23:14;;;;;;;20.37;9.53;;;;;;;7.26;100.00;99789.55;4304697;82;28481;-78
2021/11/05 19:29:15;;;;;;;20.90;10.20;;;;;;;7.37;100.00;99790.91;4299223;82;28496;-79
2021/11/05 19:35:18;;;;;;;19.98;9.60;;;;;;;7.49;100.00;99804.08;4287010;82;28441;-78
2021/11/05 19:41:20;;;;;;;16.23;9.00;;;;;;;7.60;100.00;99807.26;4286750;82;28541;-81
2021/11/05 19:47:24;;;;;;;18.05;8.78;;;;;;;7.66;100.00;99815.34;4285872;82;28571;-80
2021/11/05 19:53:25;;;;;;;16.60;8.85;;;;;;;7.63;100.00;99820.25;4308762;82;28476;-81
2021/11/05 19:59:27;;;;;;;15.75;8.20;;;;;;;7.52;100.00;99830.97;4299078;81;28534;-81
2021/11/05 20:05:33;;;;;;;16.23;8.68;;;;;;;7.58;100.00;99835.54;4288603;82;28502;-81
2021/11/05 20:11:35;;;;;;;15.60;8.95;;;;;;;7.52;100.00;99846.50;4296723;82;28501;-77
2021/11/05 20:17:37;;;;;;;16.17;9.10;;;;;;;7.36;100.00;99858.80;4316945;82;28457;-81
2021/11/05 20:23:40;;;;;;;12.33;7.35;;;;;;;7.19;100.00;99859.55;4295171;82;28452;-83
2021/11/05 20:29:43;;;;;;;14.47;7.05;;;;;;;7.05;100.00;99870.60;4307624;81;28455;-85
2021/11/05 20:35:49;;;;;;;13.30;6.75;;;;;;;7.05;100.00;99874.09;4301648;82;28917;-85
2021/11/05 20:41:57;;;;;;;12.88;6.60;;;;;;;6.92;100.00;99877.41;4267999;82;28722;-85
2021/11/05 20:47:58;;;;;;;9.83;5.40;;;;;;;6.84;100.00;99875.69;4251745;82;28513;-82
2021/11/05 20:54:00;;;;;;;9.98;5.10;;;;;;;6.72;100.00;99880.34;4221317;83;28586;-82
2021/11/05 21:00:06;;;;;;;8.28;4.15;;;;;;;6.70;100.00;99887.22;4187339;83;28594;-82
2021/11/05 21:06:08;;;;;;;7.67;4.35;;;;;;;6.63;100.00;99894.31;4187046;83;28476;-80
2021/11/05 21:12:10;;;;;;;10.85;4.87;;;;;;;6.57;100.00;99905.23;4238091;83;28485;-80
2021/11/05 21:18:12;;;;;;;9.10;5.00;;;;;;;6.40;100.00;99917.92;4112381;85;28493;-81
2021/11/05 21:24:14;;;;;;;8.30;5.30;;;;;;;6.27;100.00;99933.23;4181836;83;28532;-81
2021/11/05 21:30:17;;;;;;;12.33;6.30;;;;;;;6.15;100.00;99928.84;4238529;82;28465;-81
2021/11/05 21:36:18;;;;;;;11.15;5.75;;;;;;;6.01;100.00;99942.44;4235684;82;28485;-81
2021/11/05 21:42:21;;;;;;;12.93;5.65;;;;;;;6.01;100.00;99939.77;4269844;81;28449;-83
2021/11/05 21:48:25;;;;;;;10.70;5.30;;;;;;;6.00;100.00;99943.45;4247619;82;28493;-83
2021/11/05 21:54:26;;;;;;;11.28;5.67;;;;;;;6.22;100.00;99947.64;4320400;81;28549;-82
2021/11/05 22:00:28;;;;;;;12.68;6.53;;;;;;;6.33;100.00;99953.05;4314866;81;28466;-82
2021/11/05 22:06:30;;;;;;;12.53;6.40;;;;;;;6.46;100.00;99957.77;4312616;81;28526;-80
2021/11/05 22:12:31;;;;;;;13.10;6.10;;;;;;;6.45;100.00;99947.58;4325013;81;28542;-80
2021/11/05 22:18:33;;;;;;;9.03;5.28;;;;;;;6.49;100.00;99949.39;4321491;81;28455;-79
2021/11/05 22:24:37;;;;;;;11.18;5.72;;;;;;;6.56;100.00;99955.67;4300075;81;28491;-81
2021/11/05 22:30:39;;;;;;;13.45;6.15;;;;;;;6.62;100.00;99963.47;4341671;81;28464;-81
2021/11/05 22:36:41;;;;;;;12.35;6.00;;;;;;;6.79;100.00;99978.33;4316932;81;28488;-81
2021/11/05 22:42:42;;;;;;;11.43;5.70;;;;;;;6.78;100.00;99979.34;4295017;81;28505;-81
2021/11/05 22:48:44;;;;;;;12.53;5.45;;;;;;;6.79;100.00;99978.33;4255357;82;28971;-80
2021/11/05 22:54:45;;;;;;;13.28;6.03;;;;;;;6.87;100.00;99975.23;4321141;81;28482;-80
2021/11/05 23:00:50;;;;;;;12.13;6.47;;;;;;;6.87;100.00;99983.25;4322095;81;28466;-81
2021/11/05 23:06:51;;;;;;;14.68;7.10;;;;;;;6.95;100.00;99981.34;4334320;81;28594;-82
2021/11/05 23:12:53;;;;;;;14.58;7.87;;;;;;;7.04;100.00;99990.61;4316836;81;28530;-82
2021/11/05 23:18:55;;;;;;;17.15;8.53;;;;;;;7.06;100.00;100000.08;4317235;81;28541;-80
2021/11/05 23:24:56;;;;;;;14.85;7.75;;;;;;;7.11;100.00;100010.23;4303656;81;28459;-83
2021/11/05 23:30:59;;;;;;;17.25;9.28;;;;;;;7.14;100.00;100023.75;4296081;81;28524;-82
2021/11/05 23:37:00;;;;;;;21.93;10.85;;;;;;;7.20;100.00;100022.50;4323143;81;28470;-82
2021/11/05 23:43:02;;;;;;;20.08;10.65;;;;;;;7.20;100.00;100028.38;4319652;81;28470;-81
2021/11/05 23:49:03;;;;;;;21.12;11.18;;;;;;;7.19;100.00;100029.39;4318549;81;28486;-83
2021/11/05 23:55:06;;;;;;;20.70;11.45;;;;;;;7.12;100.00;100029.27;4311557;81;28504;-82
